sensor_id;sensor_type;location;lat;lon;timestamp;P1;durP1;ratioP1;P2;durP2;ratioP2
70985;SDS011;58645;43.068;25.610;2023-08-12T00:01:12;6.20;;;4.28;;
70985;SDS011;58645;43.068;25.610;2023-08-12T00:03:38;5.70;;;4.93;;
70985;SDS011;58645;43.068;25.610;2023-08-12T00:06:03;8.35;;;5.95;;
70985;SDS011;58645;43.068;25.610;2023-08-12T00:08:30;7.15;;;5.35;;
70985;SDS011;58645;43.068;25.610;2023-08-12T00:13:22;5.65;;;4.55;;
70985;SDS011;58645;43.068;25.610;2023-08-12T00:15:47;6.60;;;5.38;;
70985;SDS011;58645;43.068;25.610;2023-08-12T00:18:13;5.07;;;4.20;;
70985;SDS011;58645;43.068;25.610;2023-08-12T00:20:40;6.47;;;5.10;;
70985;SDS011;58645;43.068;25.610;2023-08-12T00:23:07;6.78;;;5.30;;
70985;SDS011;58645;43.068;25.610;2023-08-12T00:25:33;6.85;;;5.40;;
70985;SDS011;58645;43.068;25.610;2023-08-12T00:27:59;6.32;;;5.38;;
70985;SDS011;58645;43.068;25.610;2023-08-12T00:30:25;7.57;;;4.80;;
70985;SDS011;58645;43.068;25.610;2023-08-12T00:32:50;8.30;;;5.05;;
70985;SDS011;58645;43.068;25.610;2023-08-12T00:35:16;6.55;;;4.55;;
70985;SDS011;58645;43.068;25.610;2023-08-12T00:37:42;6.35;;;5.03;;
70985;SDS011;58645;43.068;25.610;2023-08-12T00:40:08;9.70;;;5.03;;
70985;SDS011;58645;43.068;25.610;2023-08-12T00:42:34;6.80;;;5.55;;
70985;SDS011;58645;43.068;25.610;2023-08-12T00:45:00;7.18;;;5.47;;
70985;SDS011;58645;43.068;25.610;2023-08-12T00:47:26;6.63;;;4.80;;
70985;SDS011;58645;43.068;25.610;2023-08-12T00:49:54;7.03;;;5.45;;
70985;SDS011;58645;43.068;25.610;2023-08-12T00:52:22;6.80;;;4.38;;
70985;SDS011;58645;43.068;25.610;2023-08-12T00:54:48;6.63;;;4.32;;
70985;SDS011;58645;43.068;25.610;2023-08-12T00:57:14;9.13;;;5.05;;
70985;SDS011;58645;43.068;25.610;2023-08-12T00:59:40;5.85;;;4.90;;
70985;SDS011;58645;43.068;25.610;2023-08-12T01:02:08;7.00;;;5.35;;
70985;SDS011;58645;43.068;25.610;2023-08-12T01:04:34;5.95;;;4.88;;
70985;SDS011;58645;43.068;25.610;2023-08-12T01:07:00;6.40;;;4.65;;
70985;SDS011;58645;43.068;25.610;2023-08-12T01:09:25;6.00;;;4.90;;
70985;SDS011;58645;43.068;25.610;2023-08-12T01:11:57;7.05;;;5.28;;
70985;SDS011;58645;43.068;25.610;2023-08-12T01:14:39;6.85;;;6.15;;
70985;SDS011;58645;43.068;25.610;2023-08-12T01:17:07;8.45;;;5.85;;
70985;SDS011;58645;43.068;25.610;2023-08-12T01:22:02;6.55;;;5.20;;
70985;SDS011;58645;43.068;25.610;2023-08-12T01:24:42;7.82;;;5.90;;
70985;SDS011;58645;43.068;25.610;2023-08-12T01:27:09;6.13;;;5.03;;
70985;SDS011;58645;43.068;25.610;2023-08-12T01:29:43;4.28;;;3.28;;
70985;SDS011;58645;43.068;25.610;2023-08-12T01:34:54;5.10;;;4.57;;
70985;SDS011;58645;43.068;25.610;2023-08-12T01:37:28;7.68;;;4.63;;
70985;SDS011;58645;43.068;25.610;2023-08-12T01:39:56;5.15;;;4.40;;
70985;SDS011;58645;43.068;25.610;2023-08-12T01:42:29;5.88;;;3.65;;
70985;SDS011;58645;43.068;25.610;2023-08-12T01:44:56;5.03;;;4.22;;
70985;SDS011;58645;43.068;25.610;2023-08-12T01:47:22;5.25;;;4.13;;
70985;SDS011;58645;43.068;25.610;2023-08-12T01:49:48;5.15;;;3.83;;
70985;SDS011;58645;43.068;25.610;2023-08-12T01:52:13;5.00;;;3.83;;
70985;SDS011;58645;43.068;25.610;2023-08-12T01:54:40;6.13;;;3.40;;
70985;SDS011;58645;43.068;25.610;2023-08-12T01:57:06;4.85;;;4.07;;
70985;SDS011;58645;43.068;25.610;2023-08-12T01:59:33;5.75;;;3.80;;
70985;SDS011;58645;43.068;25.610;2023-08-12T02:04:25;6.15;;;4.43;;
70985;SDS011;58645;43.068;25.610;2023-08-12T02:06:51;8.40;;;4.88;;
70985;SDS011;58645;43.068;25.610;2023-08-12T02:09:17;5.50;;;4.60;;
70985;SDS011;58645;43.068;25.610;2023-08-12T02:11:43;7.18;;;4.75;;
70985;SDS011;58645;43.068;25.610;2023-08-12T02:14:09;6.15;;;4.60;;
70985;SDS011;58645;43.068;25.610;2023-08-12T02:16:34;5.57;;;4.72;;
70985;SDS011;58645;43.068;25.610;2023-08-12T02:19:00;4.97;;;4.38;;
70985;SDS011;58645;43.068;25.610;2023-08-12T02:21:26;6.72;;;4.68;;
70985;SDS011;58645;43.068;25.610;2023-08-12T02:23:51;8.85;;;5.20;;
70985;SDS011;58645;43.068;25.610;2023-08-12T02:26:17;4.97;;;4.13;;
70985;SDS011;58645;43.068;25.610;2023-08-12T02:28:43;7.78;;;4.63;;
70985;SDS011;58645;43.068;25.610;2023-08-12T02:31:09;9.50;;;4.43;;
70985;SDS011;58645;43.068;25.610;2023-08-12T02:33:34;6.50;;;5.20;;
70985;SDS011;58645;43.068;25.610;2023-08-12T02:36:00;5.90;;;4.85;;
70985;SDS011;58645;43.068;25.610;2023-08-12T02:38:26;7.05;;;4.28;;
70985;SDS011;58645;43.068;25.610;2023-08-12T02:40:51;6.93;;;4.75;;
70985;SDS011;58645;43.068;25.610;2023-08-12T02:43:17;5.18;;;3.70;;
70985;SDS011;58645;43.068;25.610;2023-08-12T02:45:43;5.93;;;4.65;;
70985;SDS011;58645;43.068;25.610;2023-08-12T02:48:09;6.00;;;4.45;;
70985;SDS011;58645;43.068;25.610;2023-08-12T02:50:35;5.32;;;3.70;;
70985;SDS011;58645;43.068;25.610;2023-08-12T02:53:02;6.88;;;4.00;;
70985;SDS011;58645;43.068;25.610;2023-08-12T02:55:28;5.55;;;4.10;;
70985;SDS011;58645;43.068;25.610;2023-08-12T02:57:54;6.72;;;4.35;;
70985;SDS011;58645;43.068;25.610;2023-08-12T03:00:20;6.85;;;4.70;;
70985;SDS011;58645;43.068;25.610;2023-08-12T03:02:47;5.97;;;4.63;;
70985;SDS011;58645;43.068;25.610;2023-08-12T03:05:12;5.85;;;4.28;;
70985;SDS011;58645;43.068;25.610;2023-08-12T03:07:38;8.50;;;5.85;;
70985;SDS011;58645;43.068;25.610;2023-08-12T03:10:04;11.88;;;7.55;;
70985;SDS011;58645;43.068;25.610;2023-08-12T03:12:30;9.82;;;7.72;;
70985;SDS011;58645;43.068;25.610;2023-08-12T03:14:56;8.55;;;6.45;;
70985;SDS011;58645;43.068;25.610;2023-08-12T03:17:21;7.35;;;5.38;;
70985;SDS011;58645;43.068;25.610;2023-08-12T03:19:47;6.28;;;4.43;;
70985;SDS011;58645;43.068;25.610;2023-08-12T03:22:14;5.70;;;4.30;;
70985;SDS011;58645;43.068;25.610;2023-08-12T03:24:40;4.85;;;3.75;;
70985;SDS011;58645;43.068;25.610;2023-08-12T03:27:05;5.20;;;3.55;;
70985;SDS011;58645;43.068;25.610;2023-08-12T03:29:31;5.05;;;4.00;;
70985;SDS011;58645;43.068;25.610;2023-08-12T03:31:57;5.15;;;3.83;;
70985;SDS011;58645;43.068;25.610;2023-08-12T03:34:23;4.70;;;4.00;;
70985;SDS011;58645;43.068;25.610;2023-08-12T03:36:48;5.30;;;4.10;;
70985;SDS011;58645;43.068;25.610;2023-08-12T03:39:15;5.25;;;4.13;;
70985;SDS011;58645;43.068;25.610;2023-08-12T03:41:41;5.07;;;3.88;;
70985;SDS011;58645;43.068;25.610;2023-08-12T03:44:07;5.05;;;4.18;;
70985;SDS011;58645;43.068;25.610;2023-08-12T03:46:33;6.28;;;3.97;;
70985;SDS011;58645;43.068;25.610;2023-08-12T03:48:59;5.75;;;3.42;;
70985;SDS011;58645;43.068;25.610;2023-08-12T03:51:25;4.63;;;3.80;;
70985;SDS011;58645;43.068;25.610;2023-08-12T03:53:50;5.82;;;4.75;;
70985;SDS011;58645;43.068;25.610;2023-08-12T03:56:16;5.95;;;3.97;;
70985;SDS011;58645;43.068;25.610;2023-08-12T03:58:42;7.03;;;3.95;;
70985;SDS011;58645;43.068;25.610;2023-08-12T04:03:34;13.45;;;8.75;;
70985;SDS011;58645;43.068;25.610;2023-08-12T04:06:00;13.38;;;8.18;;
70985;SDS011;58645;43.068;25.610;2023-08-12T04:08:25;12.02;;;8.38;;
70985;SDS011;58645;43.068;25.610;2023-08-12T04:10:51;15.82;;;9.30;;
70985;SDS011;58645;43.068;25.610;2023-08-12T04:13:17;10.63;;;5.60;;
70985;SDS011;58645;43.068;25.610;2023-08-12T04:15:47;7.68;;;5.72;;
70985;SDS011;58645;43.068;25.610;2023-08-12T04:18:14;10.85;;;5.10;;
70985;SDS011;58645;43.068;25.610;2023-08-12T04:20:40;10.05;;;5.07;;
70985;SDS011;58645;43.068;25.610;2023-08-12T04:23:06;6.90;;;4.57;;
70985;SDS011;58645;43.068;25.610;2023-08-12T04:25:31;8.90;;;5.40;;
70985;SDS011;58645;43.068;25.610;2023-08-12T04:27:57;8.45;;;6.47;;
70985;SDS011;58645;43.068;25.610;2023-08-12T04:30:23;9.35;;;6.50;;
70985;SDS011;58645;43.068;25.610;2023-08-12T04:32:49;12.70;;;7.25;;
70985;SDS011;58645;43.068;25.610;2023-08-12T04:35:14;16.92;;;8.27;;
70985;SDS011;58645;43.068;25.610;2023-08-12T04:37:40;21.63;;;8.50;;
70985;SDS011;58645;43.068;25.610;2023-08-12T04:40:06;8.98;;;6.20;;
70985;SDS011;58645;43.068;25.610;2023-08-12T04:42:33;10.00;;;5.88;;
70985;SDS011;58645;43.068;25.610;2023-08-12T04:44:59;8.50;;;6.03;;
70985;SDS011;58645;43.068;25.610;2023-08-12T04:47:24;6.95;;;4.95;;
70985;SDS011;58645;43.068;25.610;2023-08-12T04:49:50;6.13;;;4.30;;
70985;SDS011;58645;43.068;25.610;2023-08-12T04:52:16;7.20;;;4.00;;
70985;SDS011;58645;43.068;25.610;2023-08-12T04:57:08;3.42;;;3.00;;
70985;SDS011;58645;43.068;25.610;2023-08-12T04:59:35;6.28;;;5.10;;
70985;SDS011;58645;43.068;25.610;2023-08-12T05:02:00;7.47;;;6.22;;
70985;SDS011;58645;43.068;25.610;2023-08-12T05:04:27;7.00;;;5.75;;
70985;SDS011;58645;43.068;25.610;2023-08-12T05:06:53;10.25;;;6.43;;
70985;SDS011;58645;43.068;25.610;2023-08-12T05:09:18;9.70;;;7.13;;
70985;SDS011;58645;43.068;25.610;2023-08-12T05:11:44;8.38;;;6.25;;
70985;SDS011;58645;43.068;25.610;2023-08-12T05:14:10;16.08;;;11.85;;
70985;SDS011;58645;43.068;25.610;2023-08-12T05:16:36;9.00;;;7.93;;
70985;SDS011;58645;43.068;25.610;2023-08-12T05:19:01;9.70;;;8.00;;
70985;SDS011;58645;43.068;25.610;2023-08-12T05:21:27;10.13;;;8.63;;
70985;SDS011;58645;43.068;25.610;2023-08-12T05:23:53;13.43;;;10.52;;
70985;SDS011;58645;43.068;25.610;2023-08-12T05:26:18;12.38;;;10.20;;
70985;SDS011;58645;43.068;25.610;2023-08-12T05:28:46;11.48;;;8.68;;
70985;SDS011;58645;43.068;25.610;2023-08-12T05:31:11;11.10;;;8.65;;
70985;SDS011;58645;43.068;25.610;2023-08-12T05:33:37;14.20;;;10.30;;
70985;SDS011;58645;43.068;25.610;2023-08-12T05:36:03;14.48;;;11.52;;
70985;SDS011;58645;43.068;25.610;2023-08-12T05:40:54;8.13;;;6.75;;
70985;SDS011;58645;43.068;25.610;2023-08-12T05:43:20;10.00;;;7.90;;
70985;SDS011;58645;43.068;25.610;2023-08-12T05:45:46;10.63;;;8.38;;
70985;SDS011;58645;43.068;25.610;2023-08-12T05:48:13;11.68;;;9.52;;
70985;SDS011;58645;43.068;25.610;2023-08-12T05:50:39;12.77;;;11.38;;
70985;SDS011;58645;43.068;25.610;2023-08-12T05:53:04;11.90;;;10.00;;
70985;SDS011;58645;43.068;25.610;2023-08-12T05:55:30;12.65;;;11.07;;
70985;SDS011;58645;43.068;25.610;2023-08-12T05:57:59;11.63;;;8.35;;
70985;SDS011;58645;43.068;25.610;2023-08-12T06:02:51;10.02;;;7.47;;
70985;SDS011;58645;43.068;25.610;2023-08-12T06:05:17;9.15;;;6.55;;
70985;SDS011;58645;43.068;25.610;2023-08-12T06:07:43;9.90;;;6.93;;
70985;SDS011;58645;43.068;25.610;2023-08-12T06:10:09;9.55;;;7.50;;
70985;SDS011;58645;43.068;25.610;2023-08-12T06:12:35;10.68;;;7.88;;
70985;SDS011;58645;43.068;25.610;2023-08-12T06:15:00;9.55;;;7.50;;
70985;SDS011;58645;43.068;25.610;2023-08-12T06:17:26;9.82;;;8.35;;
70985;SDS011;58645;43.068;25.610;2023-08-12T06:19:52;9.57;;;7.18;;
70985;SDS011;58645;43.068;25.610;2023-08-12T06:22:17;13.07;;;8.95;;
70985;SDS011;58645;43.068;25.610;2023-08-12T06:24:43;13.20;;;10.23;;
70985;SDS011;58645;43.068;25.610;2023-08-12T06:27:09;11.95;;;8.50;;
70985;SDS011;58645;43.068;25.610;2023-08-12T06:29:34;11.25;;;8.95;;
70985;SDS011;58645;43.068;25.610;2023-08-12T06:32:00;12.68;;;7.75;;
70985;SDS011;58645;43.068;25.610;2023-08-12T06:34:26;10.18;;;6.90;;
70985;SDS011;58645;43.068;25.610;2023-08-12T06:36:51;10.63;;;8.80;;
70985;SDS011;58645;43.068;25.610;2023-08-12T06:39:17;12.23;;;8.48;;
70985;SDS011;58645;43.068;25.610;2023-08-12T06:41:43;8.65;;;6.25;;
70985;SDS011;58645;43.068;25.610;2023-08-12T06:44:08;8.43;;;6.13;;
70985;SDS011;58645;43.068;25.610;2023-08-12T06:46:34;6.85;;;6.00;;
70985;SDS011;58645;43.068;25.610;2023-08-12T06:49:00;5.28;;;3.90;;
70985;SDS011;58645;43.068;25.610;2023-08-12T06:51:25;6.28;;;3.42;;
70985;SDS011;58645;43.068;25.610;2023-08-12T06:53:51;4.03;;;3.40;;
70985;SDS011;58645;43.068;25.610;2023-08-12T06:56:17;1.92;;;1.70;;
70985;SDS011;58645;43.068;25.610;2023-08-12T06:58:43;3.58;;;2.00;;
70985;SDS011;58645;43.068;25.610;2023-08-12T07:01:08;3.25;;;2.58;;
70985;SDS011;58645;43.068;25.610;2023-08-12T07:03:34;2.67;;;2.47;;
70985;SDS011;58645;43.068;25.610;2023-08-12T07:06:00;3.83;;;1.92;;
70985;SDS011;58645;43.068;25.610;2023-08-12T07:08:25;3.95;;;2.20;;
70985;SDS011;58645;43.068;25.610;2023-08-12T07:10:52;3.05;;;1.75;;
70985;SDS011;58645;43.068;25.610;2023-08-12T07:13:18;3.30;;;2.20;;
70985;SDS011;58645;43.068;25.610;2023-08-12T07:15:43;2.75;;;1.83;;
70985;SDS011;58645;43.068;25.610;2023-08-12T07:18:09;3.85;;;1.70;;
70985;SDS011;58645;43.068;25.610;2023-08-12T07:20:35;3.10;;;1.77;;
70985;SDS011;58645;43.068;25.610;2023-08-12T07:23:01;2.90;;;1.92;;
70985;SDS011;58645;43.068;25.610;2023-08-12T07:25:26;2.33;;;1.70;;
70985;SDS011;58645;43.068;25.610;2023-08-12T07:27:52;2.03;;;1.70;;
70985;SDS011;58645;43.068;25.610;2023-08-12T07:30:18;6.72;;;1.73;;
70985;SDS011;58645;43.068;25.610;2023-08-12T07:32:43;3.72;;;1.77;;
70985;SDS011;58645;43.068;25.610;2023-08-12T07:35:09;2.35;;;1.42;;
70985;SDS011;58645;43.068;25.610;2023-08-12T07:37:35;2.75;;;1.65;;
70985;SDS011;58645;43.068;25.610;2023-08-12T07:40:01;2.30;;;1.63;;
70985;SDS011;58645;43.068;25.610;2023-08-12T07:42:28;2.83;;;1.40;;
70985;SDS011;58645;43.068;25.610;2023-08-12T07:44:54;2.50;;;1.52;;
70985;SDS011;58645;43.068;25.610;2023-08-12T07:47:19;2.92;;;1.67;;
70985;SDS011;58645;43.068;25.610;2023-08-12T07:49:45;2.33;;;1.58;;
70985;SDS011;58645;43.068;25.610;2023-08-12T07:52:11;3.60;;;1.63;;
70985;SDS011;58645;43.068;25.610;2023-08-12T07:54:36;2.08;;;1.42;;
70985;SDS011;58645;43.068;25.610;2023-08-12T07:57:02;4.47;;;1.83;;
70985;SDS011;58645;43.068;25.610;2023-08-12T07:59:28;3.72;;;1.58;;
70985;SDS011;58645;43.068;25.610;2023-08-12T08:01:54;2.72;;;1.67;;
70985;SDS011;58645;43.068;25.610;2023-08-12T08:04:20;2.22;;;1.85;;
70985;SDS011;58645;43.068;25.610;2023-08-12T08:06:45;2.72;;;2.10;;
70985;SDS011;58645;43.068;25.610;2023-08-12T08:09:11;4.03;;;2.47;;
70985;SDS011;58645;43.068;25.610;2023-08-12T08:11:37;3.78;;;1.90;;
70985;SDS011;58645;43.068;25.610;2023-08-12T08:14:03;4.55;;;2.03;;
70985;SDS011;58645;43.068;25.610;2023-08-12T08:16:28;6.15;;;2.10;;
70985;SDS011;58645;43.068;25.610;2023-08-12T08:18:54;3.45;;;2.05;;
70985;SDS011;58645;43.068;25.610;2023-08-12T08:21:20;3.00;;;1.88;;
70985;SDS011;58645;43.068;25.610;2023-08-12T08:23:46;2.45;;;1.85;;
70985;SDS011;58645;43.068;25.610;2023-08-12T08:26:11;2.10;;;1.85;;
70985;SDS011;58645;43.068;25.610;2023-08-12T08:28:38;3.75;;;1.80;;
70985;SDS011;58645;43.068;25.610;2023-08-12T08:31:04;4.45;;;1.88;;
70985;SDS011;58645;43.068;25.610;2023-08-12T08:33:29;3.58;;;1.75;;
70985;SDS011;58645;43.068;25.610;2023-08-12T08:35:55;3.17;;;1.40;;
70985;SDS011;58645;43.068;25.610;2023-08-12T08:38:21;2.03;;;1.42;;
70985;SDS011;58645;43.068;25.610;2023-08-12T08:40:48;2.53;;;1.42;;
70985;SDS011;58645;43.068;25.610;2023-08-12T08:43:15;2.78;;;1.30;;
70985;SDS011;58645;43.068;25.610;2023-08-12T08:45:48;1.85;;;1.20;;
70985;SDS011;58645;43.068;25.610;2023-08-12T08:48:17;2.13;;;1.40;;
70985;SDS011;58645;43.068;25.610;2023-08-12T08:50:44;2.50;;;1.35;;
70985;SDS011;58645;43.068;25.610;2023-08-12T08:53:11;2.50;;;1.40;;
70985;SDS011;58645;43.068;25.610;2023-08-12T08:55:39;2.47;;;1.60;;
70985;SDS011;58645;43.068;25.610;2023-08-12T08:58:06;3.80;;;1.55;;
70985;SDS011;58645;43.068;25.610;2023-08-12T09:00:32;1.65;;;1.33;;
70985;SDS011;58645;43.068;25.610;2023-08-12T09:02:58;2.10;;;1.58;;
70985;SDS011;58645;43.068;25.610;2023-08-12T09:05:25;2.42;;;1.50;;
70985;SDS011;58645;43.068;25.610;2023-08-12T09:07:52;2.95;;;1.48;;
70985;SDS011;58645;43.068;25.610;2023-08-12T09:10:20;2.92;;;1.48;;
70985;SDS011;58645;43.068;25.610;2023-08-12T09:12:47;1.90;;;1.40;;
70985;SDS011;58645;43.068;25.610;2023-08-12T09:15:13;2.78;;;1.50;;
70985;SDS011;58645;43.068;25.610;2023-08-12T09:17:42;2.47;;;1.40;;
70985;SDS011;58645;43.068;25.610;2023-08-12T09:20:08;1.85;;;1.40;;
70985;SDS011;58645;43.068;25.610;2023-08-12T09:22:37;2.70;;;1.60;;
70985;SDS011;58645;43.068;25.610;2023-08-12T09:25:03;3.55;;;1.30;;
70985;SDS011;58645;43.068;25.610;2023-08-12T09:27:30;1.95;;;1.50;;
70985;SDS011;58645;43.068;25.610;2023-08-12T09:29:56;2.42;;;1.05;;
70985;SDS011;58645;43.068;25.610;2023-08-12T09:32:23;1.73;;;1.33;;
70985;SDS011;58645;43.068;25.610;2023-08-12T09:34:52;3.55;;;1.23;;
70985;SDS011;58645;43.068;25.610;2023-08-12T09:37:19;3.42;;;1.40;;
70985;SDS011;58645;43.068;25.610;2023-08-12T09:39:47;4.32;;;1.35;;
70985;SDS011;58645;43.068;25.610;2023-08-12T09:42:13;2.72;;;1.52;;
70985;SDS011;58645;43.068;25.610;2023-08-12T09:44:40;2.55;;;1.30;;
70985;SDS011;58645;43.068;25.610;2023-08-12T09:47:06;2.92;;;1.42;;
70985;SDS011;58645;43.068;25.610;2023-08-12T09:49:35;3.25;;;1.70;;
70985;SDS011;58645;43.068;25.610;2023-08-12T09:52:06;2.83;;;1.58;;
70985;SDS011;58645;43.068;25.610;2023-08-12T09:54:32;2.90;;;1.30;;
70985;SDS011;58645;43.068;25.610;2023-08-12T09:57:01;1.50;;;1.23;;
70985;SDS011;58645;43.068;25.610;2023-08-12T09:59:31;1.75;;;1.33;;
70985;SDS011;58645;43.068;25.610;2023-08-12T10:01:59;2.83;;;1.20;;
70985;SDS011;58645;43.068;25.610;2023-08-12T10:04:29;2.30;;;1.23;;
70985;SDS011;58645;43.068;25.610;2023-08-12T10:07:03;2.45;;;1.30;;
70985;SDS011;58645;43.068;25.610;2023-08-12T10:09:32;1.70;;;1.25;;
70985;SDS011;58645;43.068;25.610;2023-08-12T10:11:58;2.50;;;1.23;;
70985;SDS011;58645;43.068;25.610;2023-08-12T10:14:25;1.90;;;1.30;;
70985;SDS011;58645;43.068;25.610;2023-08-12T10:16:51;3.80;;;1.50;;
70985;SDS011;58645;43.068;25.610;2023-08-12T10:19:18;2.53;;;1.65;;
70985;SDS011;58645;43.068;25.610;2023-08-12T10:21:47;1.60;;;1.20;;
70985;SDS011;58645;43.068;25.610;2023-08-12T10:24:14;2.63;;;1.60;;
70985;SDS011;58645;43.068;25.610;2023-08-12T10:26:42;2.22;;;1.42;;
70985;SDS011;58645;43.068;25.610;2023-08-12T10:29:08;4.95;;;1.35;;
70985;SDS011;58645;43.068;25.610;2023-08-12T10:31:34;2.67;;;1.73;;
70985;SDS011;58645;43.068;25.610;2023-08-12T10:34:00;3.40;;;1.70;;
70985;SDS011;58645;43.068;25.610;2023-08-12T10:36:26;2.15;;;1.20;;
70985;SDS011;58645;43.068;25.610;2023-08-12T10:38:53;1.92;;;1.40;;
70985;SDS011;58645;43.068;25.610;2023-08-12T10:46:36;3.10;;;1.63;;
70985;SDS011;58645;43.068;25.610;2023-08-12T10:54:14;2.58;;;1.23;;
70985;SDS011;58645;43.068;25.610;2023-08-12T11:02:16;4.15;;;1.80;;
70985;SDS011;58645;43.068;25.610;2023-08-12T11:04:43;3.33;;;1.65;;
70985;SDS011;58645;43.068;25.610;2023-08-12T11:07:15;1.83;;;1.42;;
70985;SDS011;58645;43.068;25.610;2023-08-12T11:09:43;2.58;;;1.60;;
70985;SDS011;58645;43.068;25.610;2023-08-12T11:12:10;2.58;;;1.27;;
70985;SDS011;58645;43.068;25.610;2023-08-12T11:14:48;2.10;;;1.55;;
70985;SDS011;58645;43.068;25.610;2023-08-12T11:17:18;2.92;;;1.55;;
70985;SDS011;58645;43.068;25.610;2023-08-12T11:19:44;2.72;;;1.70;;
70985;SDS011;58645;43.068;25.610;2023-08-12T11:22:09;2.65;;;1.63;;
70985;SDS011;58645;43.068;25.610;2023-08-12T11:24:39;2.28;;;1.33;;
70985;SDS011;58645;43.068;25.610;2023-08-12T11:27:06;2.10;;;1.63;;
70985;SDS011;58645;43.068;25.610;2023-08-12T11:29:35;2.63;;;1.42;;
70985;SDS011;58645;43.068;25.610;2023-08-12T11:32:02;3.05;;;1.40;;
70985;SDS011;58645;43.068;25.610;2023-08-12T11:34:28;2.75;;;1.80;;
70985;SDS011;58645;43.068;25.610;2023-08-12T11:36:55;2.22;;;1.80;;
70985;SDS011;58645;43.068;25.610;2023-08-12T11:39:21;3.05;;;2.03;;
70985;SDS011;58645;43.068;25.610;2023-08-12T11:41:48;2.78;;;1.95;;
70985;SDS011;58645;43.068;25.610;2023-08-12T11:44:15;2.78;;;1.70;;
70985;SDS011;58645;43.068;25.610;2023-08-12T11:46:42;3.13;;;1.70;;
70985;SDS011;58645;43.068;25.610;2023-08-12T11:49:08;3.10;;;1.77;;
70985;SDS011;58645;43.068;25.610;2023-08-12T11:51:34;2.95;;;1.92;;
70985;SDS011;58645;43.068;25.610;2023-08-12T11:54:00;3.97;;;1.75;;
70985;SDS011;58645;43.068;25.610;2023-08-12T11:56:26;1.90;;;1.52;;
70985;SDS011;58645;43.068;25.610;2023-08-12T11:58:53;2.33;;;2.10;;
70985;SDS011;58645;43.068;25.610;2023-08-12T12:01:20;3.17;;;1.88;;
70985;SDS011;58645;43.068;25.610;2023-08-12T12:03:53;3.38;;;1.75;;
70985;SDS011;58645;43.068;25.610;2023-08-12T12:06:32;2.67;;;1.80;;
70985;SDS011;58645;43.068;25.610;2023-08-12T12:09:01;2.42;;;1.50;;
70985;SDS011;58645;43.068;25.610;2023-08-12T12:11:36;4.03;;;1.70;;
70985;SDS011;58645;43.068;25.610;2023-08-12T12:14:03;1.92;;;1.52;;
70985;SDS011;58645;43.068;25.610;2023-08-12T12:16:45;3.17;;;1.90;;
70985;SDS011;58645;43.068;25.610;2023-08-12T12:19:18;4.03;;;1.95;;
70985;SDS011;58645;43.068;25.610;2023-08-12T12:21:49;2.80;;;1.50;;
70985;SDS011;58645;43.068;25.610;2023-08-12T12:24:16;4.07;;;1.63;;
70985;SDS011;58645;43.068;25.610;2023-08-12T12:26:44;3.05;;;1.63;;
70985;SDS011;58645;43.068;25.610;2023-08-12T12:29:11;2.78;;;1.60;;
70985;SDS011;58645;43.068;25.610;2023-08-12T12:31:38;1.83;;;1.60;;
70985;SDS011;58645;43.068;25.610;2023-08-12T12:34:05;2.55;;;1.38;;
70985;SDS011;58645;43.068;25.610;2023-08-12T12:36:32;3.47;;;1.90;;
70985;SDS011;58645;43.068;25.610;2023-08-12T12:39:00;2.58;;;1.60;;
70985;SDS011;58645;43.068;25.610;2023-08-12T12:41:26;5.57;;;1.85;;
70985;SDS011;58645;43.068;25.610;2023-08-12T12:43:52;3.25;;;1.45;;
70985;SDS011;58645;43.068;25.610;2023-08-12T12:46:18;3.90;;;1.52;;
70985;SDS011;58645;43.068;25.610;2023-08-12T12:48:44;2.00;;;1.42;;
70985;SDS011;58645;43.068;25.610;2023-08-12T12:51:10;3.05;;;1.67;;
70985;SDS011;58645;43.068;25.610;2023-08-12T12:53:37;2.55;;;1.60;;
70985;SDS011;58645;43.068;25.610;2023-08-12T12:56:03;2.33;;;1.70;;
70985;SDS011;58645;43.068;25.610;2023-08-12T12:58:32;3.42;;;2.33;;
70985;SDS011;58645;43.068;25.610;2023-08-12T13:01:02;2.13;;;1.60;;
70985;SDS011;58645;43.068;25.610;2023-08-12T13:03:29;2.45;;;1.35;;
70985;SDS011;58645;43.068;25.610;2023-08-12T13:05:56;2.80;;;1.50;;
70985;SDS011;58645;43.068;25.610;2023-08-12T13:08:22;2.08;;;1.33;;
70985;SDS011;58645;43.068;25.610;2023-08-12T13:10:48;2.10;;;1.77;;
70985;SDS011;58645;43.068;25.610;2023-08-12T13:13:14;2.42;;;1.52;;
70985;SDS011;58645;43.068;25.610;2023-08-12T13:15:44;2.90;;;1.40;;
70985;SDS011;58645;43.068;25.610;2023-08-12T13:18:11;1.83;;;1.63;;
70985;SDS011;58645;43.068;25.610;2023-08-12T13:20:37;2.55;;;1.67;;
70985;SDS011;58645;43.068;25.610;2023-08-12T13:23:03;4.40;;;1.60;;
70985;SDS011;58645;43.068;25.610;2023-08-12T13:25:30;2.45;;;1.58;;
70985;SDS011;58645;43.068;25.610;2023-08-12T13:27:59;2.55;;;1.52;;
70985;SDS011;58645;43.068;25.610;2023-08-12T13:30:26;3.65;;;1.90;;
70985;SDS011;58645;43.068;25.610;2023-08-12T13:32:52;2.33;;;1.70;;
70985;SDS011;58645;43.068;25.610;2023-08-12T13:35:18;3.35;;;1.67;;
70985;SDS011;58645;43.068;25.610;2023-08-12T13:37:44;1.98;;;1.42;;
70985;SDS011;58645;43.068;25.610;2023-08-12T13:40:09;2.42;;;1.70;;
70985;SDS011;58645;43.068;25.610;2023-08-12T13:42:37;2.67;;;2.20;;
70985;SDS011;58645;43.068;25.610;2023-08-12T13:45:03;2.95;;;1.98;;
70985;SDS011;58645;43.068;25.610;2023-08-12T13:47:29;3.13;;;2.28;;
70985;SDS011;58645;43.068;25.610;2023-08-12T13:49:55;2.67;;;1.80;;
70985;SDS011;58645;43.068;25.610;2023-08-12T13:52:21;2.15;;;1.73;;
70985;SDS011;58645;43.068;25.610;2023-08-12T13:54:47;2.88;;;2.35;;
70985;SDS011;58645;43.068;25.610;2023-08-12T13:57:13;2.20;;;1.70;;
70985;SDS011;58645;43.068;25.610;2023-08-12T13:59:38;2.30;;;1.83;;
70985;SDS011;58645;43.068;25.610;2023-08-12T14:02:05;2.83;;;2.38;;
70985;SDS011;58645;43.068;25.610;2023-08-12T14:04:31;3.25;;;2.30;;
70985;SDS011;58645;43.068;25.610;2023-08-12T14:06:57;2.63;;;1.90;;
70985;SDS011;58645;43.068;25.610;2023-08-12T14:09:23;4.05;;;2.45;;
70985;SDS011;58645;43.068;25.610;2023-08-12T14:11:48;4.45;;;2.45;;
70985;SDS011;58645;43.068;25.610;2023-08-12T14:14:14;3.90;;;2.28;;
70985;SDS011;58645;43.068;25.610;2023-08-12T14:16:40;3.00;;;2.45;;
70985;SDS011;58645;43.068;25.610;2023-08-12T14:19:06;4.03;;;2.63;;
70985;SDS011;58645;43.068;25.610;2023-08-12T14:21:32;4.38;;;2.47;;
70985;SDS011;58645;43.068;25.610;2023-08-12T14:23:57;3.47;;;1.80;;
70985;SDS011;58645;43.068;25.610;2023-08-12T14:26:23;4.63;;;2.88;;
70985;SDS011;58645;43.068;25.610;2023-08-12T14:28:49;2.85;;;2.10;;
70985;SDS011;58645;43.068;25.610;2023-08-12T14:31:15;3.70;;;2.05;;
70985;SDS011;58645;43.068;25.610;2023-08-12T14:33:40;2.47;;;1.70;;
70985;SDS011;58645;43.068;25.610;2023-08-12T14:36:06;3.33;;;2.53;;
70985;SDS011;58645;43.068;25.610;2023-08-12T14:38:32;3.38;;;2.42;;
70985;SDS011;58645;43.068;25.610;2023-08-12T14:40:58;4.47;;;2.15;;
70985;SDS011;58645;43.068;25.610;2023-08-12T14:43:24;4.53;;;3.03;;
70985;SDS011;58645;43.068;25.610;2023-08-12T14:45:49;6.25;;;2.95;;
70985;SDS011;58645;43.068;25.610;2023-08-12T14:48:15;5.70;;;2.75;;
70985;SDS011;58645;43.068;25.610;2023-08-12T14:50:42;4.65;;;2.85;;
70985;SDS011;58645;43.068;25.610;2023-08-12T14:53:08;4.60;;;2.90;;
70985;SDS011;58645;43.068;25.610;2023-08-12T14:55:33;5.50;;;3.42;;
70985;SDS011;58645;43.068;25.610;2023-08-12T14:57:59;4.22;;;2.50;;
70985;SDS011;58645;43.068;25.610;2023-08-12T15:00:25;3.10;;;2.38;;
70985;SDS011;58645;43.068;25.610;2023-08-12T15:02:51;3.90;;;2.47;;
70985;SDS011;58645;43.068;25.610;2023-08-12T15:05:16;4.93;;;3.25;;